createdAt,value
2023-05-01T00:00:49.270Z,128.17
2023-05-01T00:01:45.081Z,128.27
2023-05-01T00:02:40.697Z,126.90
2023-05-01T00:03:36.316Z,127.00
2023-05-01T00:04:31.430Z,127.78
2023-05-01T00:05:26.657Z,127.78
2023-05-01T00:06:22.423Z,128.37
2023-05-01T00:07:17.679Z,129.16
2023-05-01T00:08:12.821Z,129.06
2023-05-01T00:09:09.289Z,129.46
2023-05-01T00:10:04.554Z,128.96
2023-05-01T00:11:00.347Z,129.16
2023-05-01T00:11:55.569Z,132.02
2023-05-01T00:12:51.040Z,133.93
2023-05-01T00:13:46.580Z,136.34
2023-05-01T00:14:41.895Z,138.60
2023-05-01T00:15:37.697Z,139.06
2023-05-01T00:16:33.057Z,137.23
2023-05-01T00:17:28.303Z,136.22
2023-05-01T00:18:23.864Z,134.58
2023-05-01T00:19:19.146Z,131.09
2023-05-01T00:20:14.418Z,129.46
2023-05-01T00:21:10.761Z,127.58
2023-05-01T00:22:06.162Z,126.81
2023-05-01T00:23:01.819Z,126.04
2023-05-01T00:23:57.076Z,124.63
2023-05-01T00:24:52.316Z,124.53
2023-05-01T00:25:47.612Z,123.61
2023-05-01T00:26:43.681Z,123.79
2023-05-01T00:27:38.960Z,123.79
2023-05-01T00:28:34.083Z,125.09
2023-05-01T00:29:29.922Z,123.34
2023-05-01T00:30:25.150Z,122.97
2023-05-01T00:31:20.426Z,123.06
2023-05-01T00:32:16.818Z,121.36
2023-05-01T00:33:11.974Z,122.34
2023-05-01T00:34:07.771Z,123.06
2023-05-01T00:35:03.023Z,125.00
2023-05-01T00:35:58.145Z,125.66
2023-05-01T00:36:54.118Z,125.47
2023-05-01T00:37:49.114Z,125.85
2023-05-01T00:38:44.928Z,126.81
2023-05-01T00:39:40.129Z,130.37
2023-05-01T00:40:35.409Z,134.25
2023-05-01T00:41:31.203Z,138.83
2023-05-01T00:42:26.624Z,142.38
2023-05-01T00:43:21.700Z,146.90
2023-05-01T00:44:16.948Z,151.29
2023-05-01T00:45:12.077Z,153.66
2023-05-01T00:46:07.361Z,151.57
2023-05-01T00:47:02.886Z,149.53
2023-05-01T00:47:58.477Z,150.61
2023-05-01T00:48:53.627Z,153.10
2023-05-01T00:49:48.898Z,150.88
2023-05-01T00:50:44.674Z,149.53
2023-05-01T00:51:40.095Z,151.15
2023-05-01T00:52:35.103Z,151.43
2023-05-01T00:53:30.359Z,151.43
2023-05-01T00:54:25.314Z,152.26
2023-05-01T00:55:20.440Z,154.80
2023-05-01T00:56:15.405Z,158.03
2023-05-01T00:57:10.703Z,158.78
2023-05-01T00:58:05.523Z,159.54
2023-05-01T00:59:00.814Z,160.77
2023-05-01T00:59:56.007Z,159.99
2023-05-01T01:00:50.983Z,158.93
2023-05-01T01:01:46.018Z,155.96
2023-05-01T01:02:40.983Z,152.54
2023-05-01T01:03:35.964Z,149.40
2023-05-01T01:04:31.141Z,147.16
2023-05-01T01:05:26.118Z,145.36
2023-05-01T01:06:24.484Z,145.11
2023-05-01T01:07:19.606Z,146.12
2023-05-01T01:08:14.569Z,148.20
2023-05-01T01:09:09.532Z,147.29
2023-05-01T01:10:04.682Z,148.46
2023-05-01T01:10:59.861Z,150.07
2023-05-01T01:11:55.166Z,151.43
2023-05-01T01:12:49.973Z,152.68
2023-05-01T01:13:45.118Z,155.81
2023-05-01T01:14:40.211Z,158.32
2023-05-01T01:15:35.297Z,158.78
2023-05-01T01:16:30.404Z,159.69
2023-05-01T01:17:25.456Z,160.46
2023-05-01T01:18:20.401Z,160.15
2023-05-01T01:19:15.511Z,160.46
2023-05-01T01:20:10.606Z,160.15
2023-05-01T01:21:05.887Z,160.46
2023-05-01T01:22:00.684Z,160.92
2023-05-01T01:22:58.390Z,160.46
2023-05-01T01:23:53.343Z,161.39
2023-05-01T01:24:48.481Z,159.69
2023-05-01T01:25:43.478Z,158.78
2023-05-01T01:26:38.725Z,156.54
2023-05-01T01:27:33.933Z,155.67
2023-05-01T01:28:29.077Z,154.80
2023-05-01T01:29:24.036Z,153.66
2023-05-01T01:30:19.189Z,150.47
2023-05-01T01:31:14.260Z,148.07
2023-05-01T01:32:11.936Z,145.87
2023-05-01T01:33:06.971Z,142.51
2023-05-01T01:34:02.113Z,140.94
2023-05-01T01:34:57.082Z,139.53
2023-05-01T01:35:52.270Z,140.00
2023-05-01T01:36:47.223Z,138.83
2023-05-01T01:37:42.238Z,137.23
2023-05-01T01:38:37.335Z,136.34
2023-05-01T01:39:32.505Z,134.90
2023-05-01T01:40:27.585Z,132.86
2023-05-01T01:41:22.920Z,130.37
2023-05-01T01:42:17.777Z,128.07
2023-05-01T01:43:12.923Z,125.19
2023-05-01T01:44:07.901Z,122.88
2023-05-01T01:45:03.054Z,120.57
2023-05-01T01:45:58.985Z,118.86
2023-05-01T01:46:54.157Z,116.61
2023-05-01T01:47:50.154Z,116.21
2023-05-01T01:48:48.736Z,115.09
2023-05-01T01:49:40.361Z,113.60
2023-05-01T01:50:36.201Z,114.38
2023-05-01T01:51:31.623Z,115.01
2023-05-01T01:52:26.874Z,115.32
2023-05-01T01:53:23.239Z,114.53
2023-05-01T01:54:18.495Z,114.69
2023-05-01T01:55:14.412Z,115.25
2023-05-01T01:56:09.627Z,115.72
2023-05-01T01:57:04.867Z,117.35
2023-05-01T01:58:00.622Z,118.60
2023-05-01T01:58:55.833Z,119.20
2023-05-01T01:59:51.680Z,120.31
2023-05-01T02:00:46.923Z,123.06
2023-05-01T02:01:42.428Z,125.66
2023-05-01T02:02:38.024Z,126.23
2023-05-01T02:03:33.453Z,127.29
2023-05-01T02:04:28.502Z,128.66
2023-05-01T02:05:24.992Z,130.78
2023-05-01T02:06:20.511Z,132.55
2023-05-01T02:07:16.105Z,135.12
2023-05-01T02:08:11.310Z,135.89
2023-05-01T02:09:06.652Z,137.80
2023-05-01T02:10:02.454Z,137.91
2023-05-01T02:10:59.213Z,140.23
2023-05-01T02:11:53.489Z,142.02
2023-05-01T02:12:48.767Z,144.48
2023-05-01T02:13:44.025Z,149.26
2023-05-01T02:14:39.858Z,152.68
2023-05-01T02:15:35.132Z,155.38
2023-05-01T02:16:30.392Z,155.81
2023-05-01T02:17:26.904Z,154.80
2023-05-01T02:18:22.032Z,159.38
2023-05-01T02:19:17.832Z,159.38
2023-05-01T02:20:13.116Z,158.18
2023-05-01T02:21:08.227Z,157.88
2023-05-01T02:22:04.231Z,157.73
2023-05-01T02:22:59.320Z,159.23
2023-05-01T02:23:55.294Z,166.88
2023-05-01T02:24:50.390Z,164.90
2023-05-01T02:25:45.793Z,167.54
2023-05-01T02:26:41.609Z,181.78
2023-05-01T02:27:37.042Z,194.08
2023-05-01T02:28:32.120Z,205.37
2023-05-01T02:29:28.508Z,216.49
2023-05-01T02:30:23.768Z,208.37
2023-05-01T02:31:19.619Z,197.11
2023-05-01T02:32:14.783Z,197.82
2023-05-01T02:33:10.225Z,208.37
2023-05-01T02:34:05.211Z,229.51
2023-05-01T02:35:00.727Z,243.65
2023-05-01T02:35:56.687Z,255.81
2023-05-01T02:36:51.951Z,267.05
2023-05-01T02:37:47.760Z,269.91
2023-05-01T02:38:43.017Z,280.77
2023-05-01T02:39:38.405Z,287.15
2023-05-01T02:40:34.111Z,295.96
2023-05-01T02:41:29.368Z,303.63
2023-05-01T02:42:25.214Z,306.46
2023-05-01T02:43:20.440Z,303.35
2023-05-01T02:44:15.846Z,312.60
2023-05-01T02:45:11.535Z,307.61
2023-05-01T02:46:06.811Z,308.77
2023-05-01T02:47:02.016Z,318.36
2023-05-01T02:47:58.660Z,315.91
2023-05-01T02:48:53.642Z,316.52
2023-05-01T02:49:48.898Z,309.94
2023-05-01T02:50:44.106Z,311.41
2023-05-01T02:51:41.837Z,332.89
2023-05-01T02:52:37.236Z,348.82
2023-05-01T02:53:32.080Z,357.95
2023-05-01T02:54:27.072Z,342.98
2023-05-01T02:55:22.345Z,341.20
2023-05-01T02:56:17.334Z,332.55
2023-05-01T02:57:12.452Z,328.89
2023-05-01T02:58:07.572Z,325.62
2023-05-01T02:59:02.579Z,310.82
2023-05-01T02:59:57.844Z,301.12
2023-05-01T03:00:52.647Z,305.04
2023-05-01T03:01:47.658Z,319.60
2023-05-01T03:02:42.911Z,326.60
2023-05-01T03:03:37.668Z,338.04
2023-05-01T03:04:32.800Z,334.59
2023-05-01T03:05:27.759Z,333.57
2023-05-01T03:06:23.002Z,332.55
2023-05-01T03:07:17.942Z,344.42
2023-05-01T03:08:13.105Z,334.59
2023-05-01T03:09:07.954Z,327.58
2023-05-01T03:10:03.061Z,329.55
2023-05-01T03:10:59.152Z,341.56
2023-05-01T03:11:54.401Z,354.47
2023-05-01T03:12:49.644Z,359.91
2023-05-01T03:13:44.930Z,365.12
2023-05-01T03:14:39.859Z,364.31
2023-05-01T03:15:34.971Z,361.10
2023-05-01T03:16:29.977Z,363.10
2023-05-01T03:17:24.994Z,374.28
2023-05-01T03:18:20.125Z,380.61
2023-05-01T03:19:15.216Z,385.01
2023-05-01T03:20:10.304Z,380.18
2023-05-01T03:21:05.462Z,382.36
2023-05-01T03:22:00.511Z,384.79
2023-05-01T03:22:55.653Z,392.02
2023-05-01T03:23:50.826Z,396.22
2023-05-01T03:24:45.708Z,395.98
2023-05-01T03:25:40.663Z,390.42
2023-05-01T03:26:35.797Z,393.18
2023-05-01T03:27:30.813Z,393.18
2023-05-01T03:28:26.080Z,386.35
2023-05-01T03:29:20.884Z,379.96
2023-05-01T03:30:15.919Z,381.70
2023-05-01T03:31:10.889Z,381.92
2023-05-01T03:32:05.949Z,376.43
2023-05-01T03:33:03.642Z,369.23
2023-05-01T03:33:58.493Z,368.40
2023-05-01T03:34:53.531Z,371.74
2023-05-01T03:35:48.771Z,374.71
2023-05-01T03:36:43.679Z,368.81
2023-05-01T03:37:38.782Z,353.71
2023-05-01T03:38:33.941Z,346.24
2023-05-01T03:39:28.856Z,344.79
2023-05-01T03:40:23.951Z,354.09
2023-05-01T03:41:19.073Z,356.40
2023-05-01T03:42:14.071Z,354.47
2023-05-01T03:43:09.378Z,350.31
2023-05-01T03:44:04.628Z,349.56
2023-05-01T03:45:00.043Z,335.96
2023-05-01T03:45:55.197Z,330.21
2023-05-01T03:46:51.019Z,335.96
2023-05-01T03:47:46.460Z,334.25
2023-05-01T03:48:42.462Z,327.90
2023-05-01T03:49:37.364Z,309.35
2023-05-01T03:50:32.698Z,309.64
2023-05-01T03:51:28.411Z,317.74
2023-05-01T03:52:23.741Z,305.04
2023-05-01T03:53:19.166Z,307.04
2023-05-01T03:54:15.186Z,298.93
2023-05-01T03:55:10.486Z,300.57
2023-05-01T03:56:06.354Z,302.79
2023-05-01T03:57:01.629Z,293.05
2023-05-01T03:57:57.062Z,287.40
2023-05-01T03:58:52.834Z,281.49
2023-05-01T03:59:48.035Z,280.29
2023-05-01T04:00:43.752Z,282.70
2023-05-01T04:01:39.100Z,284.66
2023-05-01T04:02:34.546Z,283.68
2023-05-01T04:03:30.270Z,287.15
2023-05-01T04:04:25.506Z,282.70
2023-05-01T04:05:20.717Z,275.11
2023-05-01T04:06:17.094Z,270.58
2023-05-01T04:07:12.342Z,268.80
2023-05-01T04:08:08.320Z,270.13
2023-05-01T04:09:03.371Z,275.11
2023-05-01T04:09:58.757Z,282.94
2023-05-01T04:10:54.507Z,290.71
2023-05-01T04:11:49.907Z,290.20
2023-05-01T04:12:45.654Z,298.93
2023-05-01T04:13:41.043Z,311.41
2023-05-01T04:14:36.324Z,313.49
2023-05-01T04:15:32.148Z,314.69
2023-05-01T04:16:27.465Z,303.07
2023-05-01T04:17:22.850Z,306.18
2023-05-01T04:18:19.118Z,310.23
2023-05-01T04:19:14.310Z,303.63
2023-05-01T04:20:09.967Z,301.40
2023-05-01T04:21:05.382Z,304.76
2023-05-01T04:22:00.766Z,301.67
2023-05-01T04:22:56.199Z,305.32
2023-05-01T04:23:51.891Z,299.47
2023-05-01T04:24:47.190Z,292.79
2023-05-01T04:25:42.474Z,304.19
2023-05-01T04:26:38.346Z,310.82
2023-05-01T04:27:33.612Z,306.46
2023-05-01T04:28:29.192Z,303.07
2023-05-01T04:29:25.162Z,292.27
2023-05-01T04:30:20.569Z,288.42
2023-05-01T04:31:16.429Z,276.51
2023-05-01T04:32:11.696Z,274.20
2023-05-01T04:33:06.990Z,273.05
2023-05-01T04:34:02.801Z,274.20
2023-05-01T04:34:58.049Z,264.47
2023-05-01T04:35:54.029Z,259.45
2023-05-01T04:36:49.157Z,258.43
2023-05-01T04:37:44.577Z,270.13
2023-05-01T04:38:40.304Z,273.74
2023-05-01T04:39:35.729Z,272.37
2023-05-01T04:40:30.961Z,272.15
2023-05-01T04:41:26.393Z,277.91
2023-05-01T04:42:21.652Z,290.71
2023-05-01T04:43:17.066Z,294.63
2023-05-01T04:44:12.590Z,298.11
2023-05-01T04:45:08.157Z,298.93
2023-05-01T04:46:03.399Z,310.23
2023-05-01T04:46:58.828Z,313.19
2023-05-01T04:47:54.533Z,312.89
2023-05-01T04:48:50.065Z,308.77
2023-05-01T04:49:45.181Z,297.30
2023-05-01T04:50:40.737Z,288.16
2023-05-01T04:51:35.825Z,276.04
2023-05-01T04:52:30.820Z,263.20
2023-05-01T04:53:25.816Z,262.99
2023-05-01T04:54:20.980Z,253.64
2023-05-01T04:55:15.961Z,249.02
2023-05-01T04:56:11.119Z,248.45
2023-05-01T04:57:06.075Z,243.65
2023-05-01T04:58:01.115Z,240.26
2023-05-01T04:58:56.232Z,239.74
2023-05-01T04:59:51.215Z,238.34
2023-05-01T05:00:46.413Z,240.09
2023-05-01T05:01:41.495Z,245.84
2023-05-01T05:02:36.553Z,243.11
2023-05-01T05:03:34.415Z,240.44
2023-05-01T05:04:29.433Z,233.26
2023-05-01T05:05:24.343Z,233.43
2023-05-01T05:07:43.461Z,234.43
2023-05-01T05:08:38.580Z,227.76
2023-05-01T05:09:34.132Z,226.18
2023-05-01T05:10:29.219Z,228.71
2023-05-01T05:11:24.609Z,226.65
2023-05-01T05:12:19.988Z,221.60
2023-05-01T05:13:15.374Z,211.74
2023-05-01T05:14:10.736Z,208.90
2023-05-01T05:15:06.299Z,209.04
2023-05-01T05:16:01.440Z,210.11
2023-05-01T05:16:56.901Z,210.92
2023-05-01T05:17:53.457Z,212.15
2023-05-01T05:18:47.552Z,210.92
2023-05-01T05:19:43.052Z,210.78
2023-05-01T05:20:38.251Z,212.28
2023-05-01T05:21:33.453Z,217.92
2023-05-01T05:22:28.868Z,220.71
2023-05-01T05:23:24.109Z,221.60
2023-05-01T05:24:19.680Z,222.65
2023-05-01T05:25:14.753Z,224.18
2023-05-01T05:26:10.164Z,221.90
2023-05-01T05:27:05.520Z,221.15
2023-05-01T05:28:01.101Z,216.77
2023-05-01T05:28:56.469Z,212.01
2023-05-01T05:29:51.792Z,208.11
2023-05-01T05:30:47.086Z,202.46
2023-05-01T05:31:42.562Z,199.38
2023-05-01T05:32:37.906Z,200.85
2023-05-01T05:33:33.199Z,208.51
2023-05-01T05:34:28.786Z,213.94
2023-05-01T05:35:23.961Z,217.35
2023-05-01T05:36:19.273Z,219.53
2023-05-01T05:37:14.731Z,214.93
2023-05-01T05:38:10.294Z,211.46
2023-05-01T05:39:05.713Z,213.25
2023-05-01T05:40:00.989Z,221.90
2023-05-01T05:40:56.471Z,234.93
2023-05-01T05:41:51.737Z,241.32
2023-05-01T05:42:47.182Z,246.21
2023-05-01T05:43:42.555Z,246.40
2023-05-01T05:44:38.010Z,240.62
2023-05-01T05:45:33.154Z,236.11
2023-05-01T05:46:28.543Z,240.26
2023-05-01T05:47:23.798Z,237.65
2023-05-01T05:48:19.377Z,238.69
2023-05-01T05:49:14.670Z,238.34
2023-05-01T05:50:10.318Z,235.10
2023-05-01T05:51:05.446Z,237.14
2023-05-01T05:52:00.888Z,241.15
2023-05-01T05:52:56.166Z,245.29
2023-05-01T05:53:51.505Z,244.56
2023-05-01T05:54:47.083Z,241.15
2023-05-01T05:55:42.395Z,236.80
2023-05-01T05:56:37.701Z,234.26
2023-05-01T05:57:33.169Z,229.35
2023-05-01T05:58:28.577Z,227.44
2023-05-01T05:59:24.081Z,226.18
2023-05-01T06:00:19.232Z,221.30
2023-05-01T06:01:14.570Z,215.21
2023-05-01T06:02:10.008Z,211.74
2023-05-01T06:03:05.563Z,211.46
2023-05-01T06:04:00.752Z,213.25
2023-05-01T06:04:56.368Z,218.65
2023-05-01T06:05:51.574Z,218.21
2023-05-01T06:06:46.880Z,215.49
2023-05-01T06:07:42.184Z,216.77
2023-05-01T06:08:37.803Z,220.41
2023-05-01T06:09:33.129Z,222.50
2023-05-01T06:10:28.326Z,223.72
2023-05-01T06:11:23.606Z,225.10
2023-05-01T06:12:19.040Z,226.81
2023-05-01T06:13:14.818Z,228.39
2023-05-01T06:14:09.730Z,229.03
2023-05-01T06:15:05.195Z,227.60
2023-05-01T06:16:00.545Z,228.07
2023-05-01T06:16:55.847Z,226.97
2023-05-01T06:17:51.302Z,226.34
2023-05-01T06:18:46.829Z,225.25
2023-05-01T06:19:42.194Z,224.79
2023-05-01T06:20:37.476Z,227.76
2023-05-01T06:21:32.957Z,229.03
2023-05-01T06:22:28.243Z,228.55
2023-05-01T06:23:23.698Z,223.57
2023-05-01T06:24:19.173Z,220.12
2023-05-01T06:25:14.348Z,206.93
2023-05-01T06:26:09.599Z,198.18
2023-05-01T06:27:05.066Z,205.50
2023-05-01T06:28:00.492Z,211.46
2023-05-01T06:28:56.057Z,216.06
2023-05-01T06:29:51.407Z,217.63
2023-05-01T06:30:46.719Z,217.78
2023-05-01T06:31:42.076Z,217.92
2023-05-01T06:32:37.531Z,218.50
2023-05-01T06:33:32.802Z,224.48
2023-05-01T06:34:28.350Z,226.50
2023-05-01T06:35:23.635Z,228.39
2023-05-01T06:36:19.229Z,231.61
2023-05-01T06:37:15.349Z,229.83
2023-05-01T06:38:10.811Z,226.65
2023-05-01T06:39:06.245Z,226.81
2023-05-01T06:40:01.472Z,223.11
2023-05-01T06:40:56.752Z,221.15
2023-05-01T06:41:52.114Z,224.48
2023-05-01T06:42:47.397Z,225.25
2023-05-01T06:43:42.864Z,225.87
2023-05-01T06:44:38.330Z,222.65
2023-05-01T06:45:33.674Z,226.65
2023-05-01T06:46:28.974Z,226.34
2023-05-01T06:47:24.554Z,227.44
2023-05-01T06:48:19.831Z,230.15
2023-05-01T06:49:15.597Z,230.31
2023-05-01T06:50:10.649Z,232.10
2023-05-01T06:51:06.115Z,230.15
2023-05-01T06:52:01.407Z,231.61
2023-05-01T06:52:56.845Z,230.48
2023-05-01T06:53:52.301Z,230.64
2023-05-01T06:54:47.517Z,230.31
2023-05-01T06:55:42.906Z,234.93
2023-05-01T06:56:37.989Z,239.74
2023-05-01T06:57:33.272Z,239.21
2023-05-01T06:58:28.244Z,240.97
2023-05-01T06:59:23.456Z,243.65
2023-05-01T07:00:18.329Z,242.93
2023-05-01T07:01:13.551Z,239.21
2023-05-01T07:02:08.722Z,236.97
2023-05-01T07:03:03.774Z,234.93
2023-05-01T07:03:58.760Z,239.91
2023-05-01T07:04:53.859Z,242.21
2023-05-01T07:05:48.872Z,241.50
2023-05-01T07:06:44.090Z,245.11
2023-05-01T07:07:42.206Z,246.03
2023-05-01T07:08:35.310Z,252.27
2023-05-01T07:09:30.321Z,255.81
2023-05-01T07:10:25.889Z,258.63
2023-05-01T07:11:21.287Z,262.78
2023-05-01T07:12:16.753Z,263.20
2023-05-01T07:13:12.150Z,260.07
2023-05-01T07:14:07.791Z,262.57
2023-05-01T07:15:03.172Z,269.24
2023-05-01T07:15:58.770Z,273.97
2023-05-01T07:16:54.257Z,271.92
2023-05-01T07:17:49.612Z,268.80
2023-05-01T07:18:45.119Z,268.80
2023-05-01T07:19:40.534Z,267.93
2023-05-01T07:20:35.791Z,270.80
2023-05-01T07:21:31.349Z,270.80
2023-05-01T07:22:26.723Z,267.49
2023-05-01T07:23:21.812Z,265.76
2023-05-01T07:24:17.059Z,269.69
2023-05-01T07:25:11.941Z,273.74
2023-05-01T07:26:07.019Z,276.97
2023-05-01T07:27:02.135Z,277.44
2023-05-01T07:27:57.176Z,271.92
2023-05-01T07:28:52.401Z,263.83
2023-05-01T07:29:47.257Z,253.64
2023-05-01T07:30:42.356Z,242.93
2023-05-01T07:31:37.380Z,235.10
2023-05-01T07:32:33.627Z,227.76
2023-05-01T07:33:28.790Z,224.64
2023-05-01T07:34:23.717Z,224.64
2023-05-01T07:35:18.739Z,225.25
2023-05-01T07:36:14.879Z,223.11
2023-05-01T07:37:10.283Z,221.30
2023-05-01T07:38:05.882Z,220.12
2023-05-01T07:39:01.466Z,214.79
2023-05-01T07:39:57.104Z,209.17
2023-05-01T07:40:52.348Z,208.24
2023-05-01T07:41:47.531Z,208.24
2023-05-01T07:42:42.692Z,214.22
2023-05-01T07:43:37.768Z,216.77
2023-05-01T07:44:32.763Z,214.08
2023-05-01T07:45:27.856Z,214.93
2023-05-01T07:46:22.915Z,218.50
2023-05-01T07:47:18.047Z,207.85
2023-05-01T07:48:13.125Z,198.78
2023-05-01T07:50:34.295Z,193.96
2023-05-01T07:51:30.640Z,186.79
2023-05-01T07:52:24.458Z,190.80
2023-05-01T07:53:19.929Z,190.03
2023-05-01T07:54:15.372Z,188.29
2023-05-01T07:55:10.765Z,189.70
2023-05-01T07:56:06.242Z,193.96
2023-05-01T07:57:01.640Z,197.46
2023-05-01T07:57:57.229Z,162.96
2023-05-01T07:58:52.920Z,182.58
2023-05-01T07:59:48.233Z,195.70
2023-05-01T08:00:43.627Z,206.02
2023-05-01T08:01:39.105Z,219.09
2023-05-01T08:02:34.495Z,222.96
2023-05-01T08:03:30.447Z,220.71
2023-05-01T08:04:25.440Z,219.53
2023-05-01T08:05:20.858Z,220.71
2023-05-01T08:06:16.453Z,222.65
2023-05-01T08:07:11.784Z,219.97
2023-05-01T08:08:07.203Z,219.82
2023-05-01T08:09:02.653Z,222.81
2023-05-01T08:09:59.919Z,215.91
2023-05-01T08:10:53.630Z,221.90
2023-05-01T08:11:49.179Z,232.93
2023-05-01T08:12:44.794Z,238.34
2023-05-01T08:13:40.367Z,237.31
2023-05-01T08:14:35.831Z,234.09
2023-05-01T08:15:31.233Z,226.81
2023-05-01T08:16:26.841Z,234.93
2023-05-01T08:17:22.427Z,239.04
2023-05-01T08:18:18.018Z,237.48
2023-05-01T08:19:13.311Z,234.60
2023-05-01T08:20:08.913Z,210.11
2023-05-01T08:21:04.333Z,199.63
2023-05-01T08:21:59.896Z,203.97
2023-05-01T08:22:55.511Z,222.35
2023-05-01T08:23:50.706Z,238.69
2023-05-01T08:24:46.317Z,262.57
2023-05-01T08:25:41.852Z,278.86
2023-05-01T08:26:37.271Z,276.74
2023-05-01T08:27:32.863Z,269.24
2023-05-01T08:28:28.417Z,263.62
2023-05-01T08:29:24.005Z,262.78
2023-05-01T08:30:19.456Z,259.66
2023-05-01T08:31:14.954Z,252.66
2023-05-01T08:32:10.330Z,250.35
2023-05-01T08:33:06.104Z,254.03
2023-05-01T08:34:01.509Z,248.64
2023-05-01T08:34:57.070Z,248.07
2023-05-01T08:35:52.598Z,260.90
2023-05-01T08:36:48.059Z,275.35
2023-05-01T08:37:43.483Z,292.53
2023-05-01T08:38:39.086Z,296.76
2023-05-01T08:39:34.396Z,293.31
2023-05-01T08:40:29.961Z,284.17
2023-05-01T08:41:25.390Z,282.70
2023-05-01T08:42:21.006Z,288.67
2023-05-01T08:43:16.720Z,287.91
2023-05-01T08:44:12.046Z,289.18
2023-05-01T08:45:07.481Z,288.16
2023-05-01T08:46:02.939Z,281.49
2023-05-01T08:46:58.422Z,280.29
2023-05-01T08:47:53.932Z,278.15
2023-05-01T08:48:49.291Z,276.04
2023-05-01T08:49:44.900Z,282.94
2023-05-01T08:50:40.298Z,294.90
2023-05-01T08:51:35.882Z,275.35
2023-05-01T08:52:31.631Z,287.66
2023-05-01T08:53:26.936Z,298.93
2023-05-01T08:54:22.262Z,294.63
2023-05-01T08:55:17.729Z,292.79
2023-05-01T08:56:13.130Z,298.11
2023-05-01T08:57:10.272Z,299.74
2023-05-01T08:58:04.320Z,311.70
2023-05-01T08:58:59.775Z,315.30
2023-05-01T08:59:55.569Z,318.05
2023-05-01T09:00:50.724Z,328.89
2023-05-01T09:01:46.177Z,341.20
2023-05-01T09:02:41.693Z,349.93
2023-05-01T09:03:37.050Z,355.62
2023-05-01T09:04:32.577Z,355.24
2023-05-01T09:05:28.014Z,356.40
2023-05-01T09:06:23.732Z,354.85
2023-05-01T09:07:19.299Z,356.40
2023-05-01T09:08:14.607Z,349.19
2023-05-01T09:09:10.024Z,330.55
2023-05-01T09:10:05.599Z,319.91
2023-05-01T09:11:01.166Z,322.42
2023-05-01T09:11:56.747Z,318.36
2023-05-01T09:12:52.156Z,315.91
2023-05-01T09:13:47.642Z,318.36
2023-05-01T09:14:43.046Z,320.54
2023-05-01T09:15:38.617Z,324.02
2023-05-01T09:16:34.017Z,333.91
2023-05-01T09:17:29.537Z,337.69
2023-05-01T09:18:25.202Z,336.65
2023-05-01T09:19:20.685Z,330.55
2023-05-01T09:20:16.080Z,325.95
2023-05-01T09:21:11.524Z,322.11
2023-05-01T09:22:06.954Z,322.11
2023-05-01T09:23:02.663Z,312.89
2023-05-01T09:23:58.096Z,307.04
2023-05-01T09:24:53.666Z,307.61
2023-05-01T09:25:51.913Z,299.47
2023-05-01T09:26:44.783Z,291.75
2023-05-01T09:27:40.376Z,290.20
2023-05-01T09:28:35.678Z,289.18
2023-05-01T09:29:31.107Z,282.46
2023-05-01T09:30:26.812Z,291.23
2023-05-01T09:31:22.224Z,292.27
2023-05-01T09:32:17.877Z,296.49
2023-05-01T09:33:13.382Z,293.58
2023-05-01T09:34:08.770Z,288.92
2023-05-01T09:35:04.199Z,275.81
2023-05-01T09:35:59.917Z,268.36
2023-05-01T09:36:55.361Z,272.60
2023-05-01T09:37:50.943Z,263.20
2023-05-01T09:38:46.465Z,258.23
2023-05-01T09:39:41.874Z,262.36
2023-05-01T09:40:37.314Z,272.83
2023-05-01T09:41:33.044Z,276.51
2023-05-01T09:42:28.635Z,260.69
2023-05-01T09:43:23.972Z,267.49
2023-05-01T09:44:19.399Z,271.70
2023-05-01T09:45:14.892Z,278.86
2023-05-01T09:46:10.333Z,283.19
2023-05-01T09:47:05.928Z,291.75
2023-05-01T09:48:01.373Z,292.53
2023-05-01T09:48:56.776Z,293.05
2023-05-01T09:49:52.159Z,289.94
2023-05-01T09:50:47.626Z,295.69
2023-05-01T09:51:43.010Z,298.38
2023-05-01T09:52:38.898Z,287.66
2023-05-01T09:53:34.219Z,288.67
2023-05-01T09:54:29.640Z,288.16
2023-05-01T09:55:25.982Z,285.16
2023-05-01T09:56:20.535Z,285.40
2023-05-01T09:57:15.938Z,273.74
2023-05-01T09:58:11.672Z,276.74
2023-05-01T09:59:06.980Z,281.73
2023-05-01T10:00:02.441Z,276.74
2023-05-01T10:00:57.843Z,276.51
2023-05-01T10:01:53.331Z,257.42
2023-05-01T10:02:49.021Z,254.03
2023-05-01T10:03:44.496Z,262.36
2023-05-01T10:04:40.252Z,269.24
2023-05-01T10:05:35.336Z,277.91
2023-05-01T10:06:30.911Z,285.40
2023-05-01T10:07:26.360Z,290.20
2023-05-01T10:08:21.945Z,293.05
2023-05-01T10:09:19.163Z,292.79
2023-05-01T10:10:12.709Z,300.29
2023-05-01T10:11:08.020Z,300.57
2023-05-01T10:12:03.523Z,298.11
2023-05-01T10:12:59.002Z,299.74
2023-05-01T10:13:54.650Z,300.02
2023-05-01T10:14:50.075Z,300.02
2023-05-01T10:15:45.434Z,304.47
2023-05-01T10:16:40.896Z,309.35
2023-05-01T10:17:36.425Z,321.79
2023-05-01T10:18:32.080Z,324.34
2023-05-01T10:19:27.474Z,328.56
2023-05-01T10:20:22.712Z,328.23
2023-05-01T10:21:18.218Z,327.25
2023-05-01T10:22:13.720Z,322.42
2023-05-01T10:23:09.125Z,318.98
2023-05-01T10:24:04.681Z,322.11
2023-05-01T10:25:00.189Z,319.60
2023-05-01T10:25:55.652Z,321.79
2023-05-01T10:26:51.115Z,324.98
2023-05-01T10:27:46.560Z,317.13
2023-05-01T10:28:42.204Z,315.91
2023-05-01T10:29:37.675Z,313.79
2023-05-01T10:30:33.204Z,306.46
2023-05-01T10:31:28.580Z,296.49
2023-05-01T10:32:24.172Z,296.49
2023-05-01T10:33:19.634Z,309.64
2023-05-01T10:34:14.993Z,325.30
2023-05-01T10:35:10.498Z,323.70
2023-05-01T10:36:05.983Z,323.38
2023-05-01T10:37:01.300Z,312.89
2023-05-01T10:37:56.850Z,304.19
2023-05-01T10:38:52.318Z,296.76
2023-05-01T10:39:47.946Z,301.40
2023-05-01T10:40:43.409Z,307.61
2023-05-01T10:41:38.824Z,309.35
2023-05-01T10:42:34.175Z,311.11
2023-05-01T10:43:29.867Z,315.91
2023-05-01T10:44:25.237Z,317.74
2023-05-01T10:45:20.828Z,310.82
2023-05-01T10:46:16.485Z,311.70
2023-05-01T10:47:11.938Z,311.11
2023-05-01T10:48:07.431Z,301.12
2023-05-01T10:49:02.941Z,313.49
2023-05-01T10:49:58.124Z,321.48
2023-05-01T10:50:53.517Z,324.98
2023-05-01T10:51:48.971Z,315.30
2023-05-01T10:52:44.600Z,314.09
2023-05-01T10:53:39.994Z,307.61
2023-05-01T10:54:35.484Z,303.07
2023-05-01T10:55:30.976Z,317.43
2023-05-01T10:56:26.466Z,322.74
2023-05-01T10:57:21.903Z,318.98
2023-05-01T10:58:17.524Z,320.85
2023-05-01T10:59:12.952Z,329.55
2023-05-01T11:00:08.461Z,339.79
2023-05-01T11:01:03.801Z,346.24
2023-05-01T11:01:59.440Z,335.27
2023-05-01T11:02:54.680Z,341.56
2023-05-01T11:03:50.023Z,342.98
2023-05-01T11:04:45.507Z,343.34
2023-05-01T11:05:40.996Z,341.91
2023-05-01T11:06:36.639Z,351.81
2023-05-01T11:07:31.933Z,356.01
2023-05-01T11:08:27.480Z,342.98
2023-05-01T11:09:22.873Z,357.56
2023-05-01T11:10:18.336Z,367.99
2023-05-01T11:11:13.866Z,365.93
2023-05-01T11:12:09.178Z,372.58
2023-05-01T11:13:04.815Z,377.30
2023-05-01T11:14:00.194Z,393.18
2023-05-01T11:14:56.204Z,395.98
2023-05-01T11:15:51.089Z,393.41
2023-05-01T11:16:46.645Z,387.69
2023-05-01T11:17:42.517Z,407.85
2023-05-01T11:18:37.447Z,420.98
2023-05-01T11:19:32.673Z,422.85
2023-05-01T11:20:28.332Z,404.14
2023-05-01T11:21:23.687Z,409.10
2023-05-01T11:22:19.172Z,418.08
2023-05-01T11:23:14.629Z,439.57
2023-05-01T11:24:10.126Z,442.20
2023-05-01T11:25:05.581Z,447.24
2023-05-01T11:26:00.776Z,445.15
2023-05-01T11:26:56.271Z,453.63
2023-05-01T11:27:51.879Z,448.44
2023-05-01T11:28:47.305Z,455.18
2023-05-01T11:29:42.787Z,467.62
2023-05-01T11:30:38.436Z,464.69
2023-05-01T11:31:33.831Z,480.43
2023-05-01T11:32:29.286Z,486.03
2023-05-01T11:33:24.986Z,486.74
2023-05-01T11:34:20.593Z,479.05